Time;durP1;ratioP1;P1;durP2;ratioP2;P2;SDS_P1;SDS_P2;PMS_P1;PMS_P2;Temp;Humidity;BMP_temperature;BMP_pressure;BME280_temperature;BME280_humidity;BME280_pressure;Samples;Min_cycle;Max_cycle;Signal;HPM_P1;HPM_P2
2023/07/05 00:00:54;;;;;;;4.63;4.10;;;15.90;99.90;;;;;;5083732;28;20209;-68
2023/07/05 00:03:19;;;;;;;6.40;4.73;;;15.90;99.90;;;;;;5088771;28;20405;-68
2023/07/05 00:05:45;;;;;;;7.37;4.50;;;15.90;99.90;;;;;;5084258;28;20788;-69
2023/07/05 00:08:11;;;;;;;4.93;4.30;;;15.90;99.90;;;;;;5067669;28;20261;-69
2023/07/05 00:10:36;;;;;;;5.90;4.70;;;15.90;99.90;;;;;;5090297;28;20172;-69
2023/07/05 00:13:02;;;;;;;6.83;3.80;;;15.80;99.90;;;;;;5083730;28;20172;-68
2023/07/05 00:15:30;;;;;;;5.63;5.07;;;15.80;99.90;;;;;;5083798;28;20268;-69
2023/07/05 00:17:56;;;;;;;6.77;4.70;;;15.80;99.90;;;;;;5089489;28;20538;-68
2023/07/05 00:20:23;;;;;;;9.63;5.37;;;15.80;99.90;;;;;;5086183;28;20429;-69
2023/07/05 00:22:49;;;;;;;5.20;4.80;;;15.80;99.90;;;;;;5088549;28;20410;-69
2023/07/05 00:25:14;;;;;;;6.00;4.17;;;15.70;99.90;;;;;;5085856;28;20798;-69
2023/07/05 00:27:40;;;;;;;8.60;4.60;;;15.70;99.90;;;;;;5088114;28;20499;-69
2023/07/05 00:30:06;;;;;;;5.10;4.70;;;15.70;99.90;;;;;;5096871;28;20441;-68
2023/07/05 00:32:32;;;;;;;6.83;4.30;;;15.70;99.90;;;;;;5084517;28;20552;-68
2023/07/05 00:34:57;;;;;;;4.77;4.33;;;15.70;99.90;;;;;;5087815;28;20420;-69
2023/07/05 00:37:23;;;;;;;12.13;5.60;;;15.70;99.90;;;;;;5088161;28;20173;-69
2023/07/05 00:39:49;;;;;;;6.50;4.50;;;15.70;99.90;;;;;;5086768;28;20177;-69
2023/07/05 00:42:14;;;;;;;6.63;4.43;;;15.70;99.90;;;;;;5092334;28;20181;-69
2023/07/05 00:44:40;;;;;;;7.33;4.40;;;15.70;99.90;;;;;;5091805;28;20784;-68
2023/07/05 00:47:25;;;;;;;5.03;4.20;;;15.60;99.90;;;;;;5089157;28;20231;-68
2023/07/05 00:49:51;;;;;;;4.80;4.10;;;15.70;99.90;;;;;;5098283;28;20200;-69
2023/07/05 00:52:17;;;;;;;4.47;3.97;;;15.60;99.90;;;;;;5088583;28;20413;-69
2023/07/05 00:54:48;;;;;;;6.30;4.30;;;15.60;99.90;;;;;;5093350;28;20190;-70
2023/07/05 00:57:19;;;;;;;6.70;4.20;;;15.70;99.90;;;;;;5088016;28;20833;-69
2023/07/05 01:00:06;;;;;;;5.20;4.10;;;15.60;99.90;;;;;;5094819;28;20398;-68
2023/07/05 01:02:32;;;;;;;4.87;4.30;;;15.70;99.90;;;;;;5082752;28;20408;-68
2023/07/05 01:05:00;;;;;;;6.97;4.40;;;15.70;99.90;;;;;;5089859;28;20439;-69
2023/07/05 01:07:25;;;;;;;11.03;4.50;;;15.60;99.90;;;;;;5093182;28;20590;-69
2023/07/05 01:09:51;;;;;;;8.70;4.60;;;15.60;99.90;;;;;;5086292;28;20535;-69
2023/07/05 01:12:39;;;;;;;8.53;4.80;;;15.70;99.90;;;;;;5093875;28;20169;-68
2023/07/05 01:15:13;;;;;;;3.83;3.43;;;15.60;99.90;;;;;;5092760;28;20191;-69
2023/07/05 01:17:57;;;;;;;4.93;4.47;;;15.60;99.90;;;;;;5091338;28;20426;-68
2023/07/05 01:20:38;;;;;;;5.40;4.30;;;15.60;99.90;;;;;;5082380;28;20781;-68
2023/07/05 01:23:24;;;;;;;4.57;3.90;;;15.50;99.90;;;;;;5090567;28;20472;-68
2023/07/05 01:26:08;;;;;;;4.33;3.93;;;15.50;99.90;;;;;;5089600;28;20418;-69
2023/07/05 01:28:40;;;;;;;5.33;4.60;;;15.50;99.90;;;;;;5094631;28;20443;-68
2023/07/05 01:31:30;;;;;;;7.33;4.73;;;15.60;99.90;;;;;;5091976;28;20404;-69
2023/07/05 01:34:14;;;;;;;7.23;4.47;;;15.60;99.90;;;;;;5091442;28;20779;-68
2023/07/05 01:36:41;;;;;;;5.20;4.20;;;15.60;99.90;;;;;;5081880;28;20866;-68
2023/07/05 01:39:06;;;;;;;6.23;5.63;;;15.70;99.90;;;;;;5091979;28;20819;-69
2023/07/05 01:41:32;;;;;;;4.43;4.00;;;15.70;99.90;;;;;;5101830;28;20633;-69
2023/07/05 01:43:58;;;;;;;7.80;4.37;;;15.60;99.90;;;;;;5092121;28;20197;-69
2023/07/05 01:46:33;;;;;;;4.93;4.23;;;15.70;99.90;;;;;;5092427;28;20201;-68
2023/07/05 01:49:17;;;;;;;5.47;4.73;;;15.70;99.90;;;;;;5091050;28;20504;-69
2023/07/05 01:51:54;;;;;;;9.80;5.00;;;15.70;99.90;;;;;;5092291;28;20806;-69
2023/07/05 01:54:36;;;;;;;4.97;4.57;;;15.70;99.90;;;;;;5083631;28;20541;-69
2023/07/05 01:57:26;;;;;;;7.83;4.57;;;15.70;99.90;;;;;;5092478;28;20396;-69
2023/07/05 02:00:01;;;;;;;5.63;4.20;;;15.70;99.90;;;;;;5091459;28;20405;-69
2023/07/05 02:02:33;;;;;;;8.97;4.47;;;15.70;99.90;;;;;;5091769;28;20408;-69
2023/07/05 02:05:01;;;;;;;4.90;3.90;;;15.80;99.90;;;;;;5090544;28;20448;-69
2023/07/05 02:07:28;;;;;;;5.40;4.23;;;15.80;99.90;;;;;;5087056;28;20922;-69
2023/07/05 02:09:55;;;;;;;6.10;4.60;;;15.90;99.90;;;;;;5095953;28;20536;-69
2023/07/05 02:12:22;;;;;;;10.13;5.73;;;15.90;99.90;;;;;;5101434;28;20419;-69
2023/07/05 02:14:48;;;;;;;5.73;4.53;;;15.90;99.90;;;;;;5092459;28;20438;-69
2023/07/05 02:17:14;;;;;;;9.13;4.93;;;15.90;99.90;;;;;;5100048;28;20450;-68
2023/07/05 02:19:39;;;;;;;5.33;4.67;;;15.90;99.90;;;;;;5087582;28;20207;-69
2023/07/05 02:22:05;;;;;;;5.97;3.80;;;15.90;99.90;;;;;;5096263;28;20481;-68
2023/07/05 02:24:31;;;;;;;5.97;4.20;;;15.90;99.90;;;;;;5086742;28;20195;-68
2023/07/05 02:26:59;;;;;;;5.60;4.30;;;15.80;99.90;;;;;;5089884;28;20218;-69
2023/07/05 02:29:25;;;;;;;4.60;3.60;;;15.90;99.90;;;;;;5097815;28;20449;-68
2023/07/05 02:31:51;;;;;;;5.77;4.00;;;15.90;99.90;;;;;;5086972;28;20411;-68
2023/07/05 02:34:17;;;;;;;8.00;4.13;;;15.90;99.90;;;;;;5099731;28;20445;-69
2023/07/05 02:36:43;;;;;;;5.87;4.20;;;15.90;99.90;;;;;;5086943;28;20412;-69
2023/07/05 02:39:08;;;;;;;4.20;3.90;;;15.90;99.90;;;;;;5090605;28;20171;-69
2023/07/05 02:41:34;;;;;;;5.80;4.60;;;15.80;99.90;;;;;;5101682;28;20254;-68
2023/07/05 02:43:59;;;;;;;11.03;5.37;;;15.80;99.90;;;;;;5090435;28;20216;-69
2023/07/05 02:46:26;;;;;;;7.00;4.70;;;15.80;99.90;;;;;;5087246;28;20617;-69
2023/07/05 02:48:57;;;;;;;4.00;3.70;;;15.70;99.90;;;;;;5090843;28;20563;-69
2023/07/05 02:51:27;;;;;;;5.53;4.40;;;15.80;99.90;;;;;;5085099;28;20404;-68
2023/07/05 02:53:53;;;;;;;5.30;4.00;;;15.80;99.90;;;;;;5091412;28;20416;-69
2023/07/05 02:56:18;;;;;;;6.93;4.33;;;15.70;99.90;;;;;;5091075;28;20503;-69
2023/07/05 02:58:44;;;;;;;9.10;4.90;;;15.60;99.90;;;;;;5094016;28;20492;-69
2023/07/05 03:01:09;;;;;;;6.60;4.27;;;15.60;99.90;;;;;;5082391;28;20168;-69
2023/07/05 03:03:35;;;;;;;5.83;3.87;;;15.60;99.90;;;;;;5088078;28;20285;-69
2023/07/05 03:06:01;;;;;;;6.77;4.30;;;15.60;99.90;;;;;;5090938;28;20169;-70
2023/07/05 03:08:30;;;;;;;6.70;4.90;;;15.60;99.90;;;;;;5090331;28;20272;-68
2023/07/05 03:10:57;;;;;;;5.13;4.20;;;15.60;99.90;;;;;;5083878;28;20552;-69
2023/07/05 03:13:26;;;;;;;6.83;4.40;;;15.50;99.90;;;;;;5094442;28;20402;-69
2023/07/05 03:15:52;;;;;;;6.30;4.03;;;15.50;99.90;;;;;;5092345;28;20407;-68
2023/07/05 03:18:17;;;;;;;4.50;3.77;;;15.50;99.90;;;;;;5091635;28;20877;-69
2023/07/05 03:20:46;;;;;;;5.30;4.50;;;15.60;99.90;;;;;;5091182;28;20197;-69
2023/07/05 03:23:13;;;;;;;4.43;4.03;;;15.60;99.90;;;;;;5084967;28;20882;-69
2023/07/05 03:25:39;;;;;;;11.90;5.50;;;15.70;99.90;;;;;;5092733;28;20419;-69
2023/07/05 03:28:04;;;;;;;8.20;4.70;;;15.70;99.90;;;;;;5084828;28;20764;-68
2023/07/05 03:30:31;;;;;;;7.13;4.33;;;15.70;99.90;;;;;;5100580;28;20537;-68
2023/07/05 03:32:57;;;;;;;6.17;3.93;;;15.70;99.90;;;;;;5092414;28;20501;-69
2023/07/05 03:35:23;;;;;;;6.30;4.50;;;15.70;99.90;;;;;;5086602;28;20520;-69
2023/07/05 03:37:48;;;;;;;4.30;3.90;;;15.80;99.90;;;;;;5098804;28;20174;-69
2023/07/05 03:40:14;;;;;;;5.03;4.20;;;15.80;99.90;;;;;;5068903;28;20208;-69
2023/07/05 03:42:39;;;;;;;4.23;3.57;;;15.90;99.90;;;;;;5090277;28;20636;-70
2023/07/05 03:45:06;;;;;;;7.10;4.43;;;15.90;99.90;;;;;;5086681;28;20303;-69
2023/07/05 03:47:31;;;;;;;7.00;3.80;;;15.90;99.90;;;;;;5095336;28;20166;-69
2023/07/05 03:49:57;;;;;;;5.90;4.67;;;16.00;99.90;;;;;;5085773;28;20452;-69
2023/07/05 03:52:23;;;;;;;8.00;4.80;;;16.00;99.90;;;;;;5088101;28;20567;-68
2023/07/05 03:54:48;;;;;;;8.47;4.40;;;16.00;99.90;;;;;;5098363;28;20204;-68
2023/07/05 03:57:14;;;;;;;5.00;3.77;;;16.10;99.90;;;;;;5091698;28;20165;-68
2023/07/05 03:59:40;;;;;;;6.47;4.20;;;16.10;99.90;;;;;;5097448;28;20177;-68
2023/07/05 04:02:06;;;;;;;4.43;4.10;;;16.20;99.90;;;;;;5090704;28;20186;-68
2023/07/05 04:04:32;;;;;;;4.80;3.87;;;16.30;99.90;;;;;;5088744;28;20203;-69
2023/07/05 04:06:59;;;;;;;10.20;4.27;;;16.30;99.90;;;;;;5085456;28;20524;-69
2023/07/05 04:09:25;;;;;;;4.60;3.83;;;16.40;99.90;;;;;;5093143;28;20448;-69
2023/07/05 04:11:51;;;;;;;4.87;4.10;;;16.50;99.90;;;;;;5092114;28;20401;-70
2023/07/05 04:14:17;;;;;;;5.40;3.93;;;16.40;99.90;;;;;;5086409;28;20590;-69
2023/07/05 04:16:43;;;;;;;5.13;4.03;;;16.40;99.90;;;;;;5090418;28;20832;-68
2023/07/05 04:19:09;;;;;;;7.67;5.30;;;16.60;99.90;;;;;;5094156;28;20167;-69
2023/07/05 04:21:35;;;;;;;6.97;4.33;;;16.60;99.90;;;;;;5092420;28;20468;-67
2023/07/05 04:24:00;;;;;;;6.60;4.30;;;16.70;99.90;;;;;;5092573;28;20425;-68
2023/07/05 04:26:28;;;;;;;7.40;4.27;;;16.70;99.90;;;;;;5091822;28;20176;-68
2023/07/05 04:28:54;;;;;;;6.50;4.13;;;16.90;99.90;;;;;;5104588;28;20227;-69
2023/07/05 04:31:27;;;;;;;7.20;3.77;;;16.90;99.90;;;;;;5090538;28;20410;-69
2023/07/05 04:33:53;;;;;;;8.17;3.60;;;16.90;99.90;;;;;;5094089;28;20908;-69
2023/07/05 04:36:19;;;;;;;7.10;4.30;;;16.80;99.90;;;;;;5093528;28;20468;-69
2023/07/05 04:38:44;;;;;;;4.57;3.90;;;16.90;99.90;;;;;;5096667;28;20508;-69
2023/07/05 04:41:10;;;;;;;4.20;3.83;;;16.90;99.90;;;;;;5096630;28;20218;-69
2023/07/05 04:43:35;;;;;;;3.97;3.60;;;17.00;99.90;;;;;;5100244;28;20282;-69
2023/07/05 04:46:01;;;;;;;5.00;4.10;;;17.10;99.90;;;;;;5088000;28;20237;-69
2023/07/05 04:48:28;;;;;;;4.97;4.20;;;17.20;99.90;;;;;;5106536;28;20230;-69
2023/07/05 04:50:55;;;;;;;8.50;4.20;;;17.30;99.90;;;;;;5094807;28;20502;-68
2023/07/05 04:53:26;;;;;;;6.53;4.40;;;17.50;99.90;;;;;;5097009;28;20954;-68
2023/07/05 04:55:57;;;;;;;6.40;3.70;;;17.60;99.90;;;;;;5097514;28;20823;-69
2023/07/05 04:58:24;;;;;;;6.00;4.07;;;17.80;99.90;;;;;;5091204;28;20978;-69
2023/07/05 05:00:50;;;;;;;6.17;4.10;;;17.90;99.90;;;;;;5094684;28;20406;-68
2023/07/05 05:03:18;;;;;;;5.30;4.53;;;18.20;99.90;;;;;;5087882;28;20986;-68
2023/07/05 05:05:45;;;;;;;5.57;5.00;;;18.30;99.90;;;;;;5094067;28;20182;-68
2023/07/05 05:08:12;;;;;;;11.57;4.30;;;17.90;99.90;;;;;;5114504;22;20616;-67
2023/07/05 05:10:38;;;;;;;7.20;4.40;;;17.90;99.90;;;;;;5095036;28;20838;-69
2023/07/05 05:13:05;;;;;;;7.37;4.50;;;17.70;99.90;;;;;;5091308;28;20452;-67
2023/07/05 05:15:37;;;;;;;5.40;3.80;;;17.70;99.90;;;;;;5094527;28;21176;-66
2023/07/05 05:18:02;;;;;;;5.60;4.23;;;17.90;99.90;;;;;;5101896;28;20804;-68
2023/07/05 05:20:30;;;;;;;4.20;3.80;;;17.90;99.90;;;;;;5085930;28;20417;-67
2023/07/05 05:22:56;;;;;;;8.63;5.13;;;18.00;99.90;;;;;;5091285;28;20176;-68
2023/07/05 05:25:22;;;;;;;4.97;3.80;;;17.90;99.90;;;;;;5093893;28;20488;-69
2023/07/05 05:27:47;;;;;;;5.53;3.63;;;18.10;99.90;;;;;;5085770;28;20455;-68
2023/07/05 05:30:13;;;;;;;5.57;4.43;;;18.40;99.90;;;;;;5091245;28;20281;-67
2023/07/05 05:32:39;;;;;;;6.10;4.33;;;18.60;99.90;;;;;;5090608;28;20158;-67
2023/07/05 05:35:05;;;;;;;5.77;4.23;;;18.60;99.90;;;;;;5092796;28;20352;-66
2023/07/05 05:37:31;;;;;;;10.57;4.90;;;18.80;99.90;;;;;;5077382;28;20201;-67
2023/07/05 05:39:56;;;;;;;6.27;4.93;;;18.60;99.90;;;;;;5090595;28;20405;-68
2023/07/05 05:42:22;;;;;;;7.03;4.80;;;18.70;99.90;;;;;;5087418;28;20535;-68
2023/07/05 05:44:48;;;;;;;7.10;6.03;;;18.70;99.90;;;;;;5089706;28;20541;-68
2023/07/05 05:47:13;;;;;;;4.67;4.20;;;19.00;99.90;;;;;;5092203;28;20196;-68
2023/07/05 05:49:39;;;;;;;6.23;5.40;;;19.50;99.90;;;;;;5085566;28;20527;-68
2023/07/05 05:52:05;;;;;;;8.73;4.43;;;19.80;99.90;;;;;;5088451;28;20174;-69
2023/07/05 05:54:30;;;;;;;8.70;4.50;;;19.80;99.90;;;;;;5085793;28;20199;-68
2023/07/05 05:56:56;;;;;;;8.77;4.80;;;19.70;99.90;;;;;;5086913;28;20169;-69
2023/07/05 05:59:21;;;;;;;5.63;3.90;;;19.60;99.90;;;;;;5079574;28;20254;-69
2023/07/05 06:01:47;;;;;;;5.70;4.57;;;19.50;99.90;;;;;;5077858;28;20201;-66
2023/07/05 06:04:13;;;;;;;4.50;3.73;;;19.20;99.90;;;;;;5080918;28;20171;-67
2023/07/05 06:06:39;;;;;;;9.67;4.60;;;19.00;99.90;;;;;;5080198;28;20409;-68
2023/07/05 06:09:04;;;;;;;9.50;5.10;;;18.90;99.90;;;;;;5073854;28;20213;-69
2023/07/05 06:11:30;;;;;;;6.23;4.77;;;18.90;99.90;;;;;;5091485;28;20640;-68
2023/07/05 06:13:55;;;;;;;9.67;4.87;;;18.90;99.90;;;;;;5088508;28;20173;-67
2023/07/05 06:16:21;;;;;;;8.30;5.90;;;18.80;99.90;;;;;;5082151;28;20172;-67
2023/07/05 06:18:46;;;;;;;5.87;4.20;;;18.70;99.90;;;;;;5084724;28;20202;-69
2023/07/05 06:21:12;;;;;;;8.80;5.30;;;18.70;99.90;;;;;;5089826;28;20227;-68
2023/07/05 06:23:38;;;;;;;7.37;5.27;;;18.80;99.90;;;;;;5091095;28;20167;-67
2023/07/05 06:26:03;;;;;;;8.13;5.43;;;18.80;99.90;;;;;;5087926;28;20176;-67
2023/07/05 06:28:29;;;;;;;5.73;5.00;;;19.00;99.90;;;;;;5092907;28;20239;-68
2023/07/05 06:30:55;;;;;;;10.60;4.90;;;19.00;99.90;;;;;;5088120;28;20248;-67
2023/07/05 06:33:20;;;;;;;7.97;4.53;;;19.10;99.90;;;;;;5088410;28;20170;-69
2023/07/05 06:35:50;;;;;;;10.13;5.13;;;19.10;99.90;;;;;;5087423;28;20172;-66
2023/07/05 06:38:16;;;;;;;8.27;5.47;;;19.10;99.90;;;;;;5083923;28;20704;-68
2023/07/05 06:40:42;;;;;;;7.87;4.87;;;19.10;99.90;;;;;;5085959;28;20404;-68
2023/07/05 06:43:07;;;;;;;7.93;6.27;;;19.10;99.90;;;;;;5087539;28;20411;-69
2023/07/05 06:45:34;;;;;;;7.17;4.50;;;19.20;99.90;;;;;;5092675;28;20408;-68
2023/07/05 06:47:59;;;;;;;9.83;5.07;;;19.40;99.90;;;;;;5082330;28;20188;-68
2023/07/05 06:50:25;;;;;;;7.40;5.70;;;19.40;99.90;;;;;;5091886;28;20546;-67
2023/07/05 06:52:51;;;;;;;6.27;5.00;;;19.60;99.90;;;;;;5086698;28;20169;-67
2023/07/05 06:55:16;;;;;;;10.70;5.50;;;19.80;99.90;;;;;;5085870;28;20657;-67
2023/07/05 06:57:42;;;;;;;6.30;5.63;;;20.00;99.90;;;;;;5088354;28;20739;-68
2023/07/05 07:00:09;;;;;;;10.30;6.33;;;20.20;99.90;;;;;;5086987;28;20176;-67
2023/07/05 07:02:35;;;;;;;6.10;5.07;;;20.40;99.90;;;;;;5087492;28;20169;-66
2023/07/05 07:05:01;;;;;;;6.97;5.50;;;21.10;99.90;;;;;;5081707;28;20410;-68
2023/07/05 07:07:26;;;;;;;7.50;6.30;;;21.50;99.90;;;;;;5085618;28;20409;-68
2023/07/05 07:09:52;;;;;;;9.23;6.57;;;21.40;99.90;;;;;;5083039;28;20545;-68
2023/07/05 07:12:18;;;;;;;8.60;5.80;;;21.50;99.90;;;;;;5080311;28;20183;-66
2023/07/05 07:14:44;;;;;;;6.90;6.20;;;21.40;99.90;;;;;;5088205;28;20164;-66
2023/07/05 07:17:09;;;;;;;8.90;6.63;;;21.30;99.90;;;;;;5084923;28;20247;-68
2023/07/05 07:19:35;;;;;;;7.67;6.30;;;21.70;99.90;;;;;;5083320;28;20215;-66
2023/07/05 07:22:01;;;;;;;9.97;6.63;;;21.60;99.90;;;;;;5090234;28;20180;-67
2023/07/05 07:24:28;;;;;;;13.60;7.20;;;22.40;99.90;;;;;;5084247;28;20178;-67
2023/07/05 07:26:55;;;;;;;9.70;6.97;;;22.20;99.90;;;;;;5088142;28;20172;-67
2023/07/05 07:29:20;;;;;;;11.90;8.40;;;22.40;99.90;;;;;;5086994;28;20996;-69
2023/07/05 07:31:46;;;;;;;8.00;7.10;;;22.80;99.90;;;;;;5083774;28;20468;-67
2023/07/05 07:34:12;;;;;;;8.20;7.33;;;23.20;99.90;;;;;;5087762;28;20172;-68
2023/07/05 07:36:38;;;;;;;9.17;7.40;;;23.80;99.90;;;;;;5086952;28;20173;-68
2023/07/05 07:39:04;;;;;;;9.30;7.80;;;23.60;99.90;;;;;;5083709;28;20924;-69
2023/07/05 07:41:35;;;;;;;9.43;7.90;;;23.60;99.90;;;;;;5085941;28;20595;-69
2023/07/05 07:44:05;;;;;;;10.97;8.00;;;23.70;99.90;;;;;;5070586;28;20427;-70
2023/07/05 07:46:31;;;;;;;10.97;8.80;;;23.90;99.90;;;;;;5085314;28;20455;-68
2023/07/05 07:48:59;;;;;;;12.90;8.40;;;24.20;99.90;;;;;;5081030;28;20564;-67
2023/07/05 07:51:28;;;;;;;10.43;8.13;;;24.00;99.90;;;;;;5086057;28;20422;-68
2023/07/05 07:53:54;;;;;;;11.33;7.97;;;23.60;99.90;;;;;;5083416;28;20399;-67
2023/07/05 07:56:22;;;;;;;12.80;8.57;;;23.30;99.90;;;;;;5082868;28;20418;-69
2023/07/05 07:58:50;;;;;;;10.93;8.30;;;23.40;99.90;;;;;;5087211;28;20428;-69
2023/07/05 08:01:25;;;;;;;11.70;8.63;;;23.70;99.90;;;;;;5089931;28;20416;-67
2023/07/05 08:03:52;;;;;;;12.87;9.57;;;23.40;99.90;;;;;;5086398;28;20541;-68
2023/07/05 08:06:19;;;;;;;10.10;8.60;;;23.60;99.90;;;;;;5082774;28;20497;-69
2023/07/05 08:08:44;;;;;;;13.90;10.00;;;23.70;99.90;;;;;;5082999;28;20474;-68
2023/07/05 08:11:10;;;;;;;10.93;8.77;;;23.70;99.90;;;;;;5082507;28;20415;-68
2023/07/05 08:13:40;;;;;;;14.53;8.80;;;23.60;99.90;;;;;;5090538;28;20651;-69
2023/07/05 08:16:06;;;;;;;10.93;8.93;;;23.60;99.90;;;;;;5083188;28;20342;-68
2023/07/05 08:18:32;;;;;;;10.10;9.03;;;23.60;99.90;;;;;;5091264;28;20448;-69
2023/07/05 08:20:59;;;;;;;14.60;9.23;;;23.60;99.90;;;;;;5082658;28;20895;-68
2023/07/05 08:23:24;;;;;;;18.97;11.77;;;23.50;99.90;;;;;;5091536;28;20233;-68
2023/07/05 08:25:54;;;;;;;15.30;9.70;;;23.20;99.90;;;;;;5074556;28;20502;-68
2023/07/05 08:28:25;;;;;;;13.97;11.10;;;23.10;99.90;;;;;;5089550;28;20222;-68
2023/07/05 08:31:02;;;;;;;13.90;10.77;;;23.20;99.90;;;;;;5086249;28;20417;-70
2023/07/05 08:33:29;;;;;;;17.07;10.80;;;23.00;99.90;;;;;;5078424;28;20909;-67
2023/07/05 08:36:04;;;;;;;14.73;11.00;;;22.90;99.90;;;;;;5084837;28;20885;-67
2023/07/05 08:38:30;;;;;;;12.80;10.60;;;22.90;99.90;;;;;;5084823;28;20428;-69
2023/07/05 08:41:13;;;;;;;12.17;9.57;;;22.70;99.90;;;;;;5088007;28;20468;-68
2023/07/05 08:43:50;;;;;;;14.70;11.47;;;22.70;99.90;;;;;;5085640;28;20421;-68
2023/07/05 08:46:16;;;;;;;13.47;10.90;;;22.60;99.90;;;;;;5073773;28;20421;-68
2023/07/05 08:48:45;;;;;;;13.23;10.07;;;22.70;99.90;;;;;;5064484;28;20484;-67
2023/07/05 08:51:15;;;;;;;11.87;10.67;;;22.70;99.90;;;;;;5087182;28;20411;-67
2023/07/05 08:53:53;;;;;;;14.63;10.13;;;22.70;99.90;;;;;;5083953;28;20414;-68
2023/07/05 08:56:24;;;;;;;13.87;10.07;;;22.80;99.90;;;;;;5076109;28;20805;-68
2023/07/05 08:59:02;;;;;;;9.80;8.70;;;22.80;99.90;;;;;;5084807;28;20441;-68
2023/07/05 09:01:32;;;;;;;12.10;10.13;;;22.80;99.90;;;;;;5089688;28;20418;-68
2023/07/05 09:03:58;;;;;;;15.80;10.83;;;22.90;99.90;;;;;;5085284;28;20403;-69
2023/07/05 09:06:32;;;;;;;15.00;10.30;;;22.90;99.90;;;;;;5092670;28;20781;-68
2023/07/05 09:09:07;;;;;;;10.53;9.27;;;23.00;99.90;;;;;;5085875;28;20513;-68
2023/07/05 09:12:11;;;;;;;11.10;8.97;;;23.00;99.90;;;;;;5091641;28;20461;-67
2023/07/05 09:14:45;;;;;;;14.03;9.60;;;23.10;99.90;;;;;;5083092;28;20411;-67
2023/07/05 09:17:48;;;;;;;11.93;9.93;;;23.40;99.90;;;;;;5086526;28;20437;-68
2023/07/05 09:20:39;;;;;;;10.87;9.10;;;23.50;99.90;;;;;;5072461;28;20413;-67
2023/07/05 09:23:12;;;;;;;13.20;9.07;;;23.30;99.90;;;;;;5085838;28;20403;-68
2023/07/05 09:25:42;;;;;;;8.60;7.10;;;23.60;99.90;;;;;;5085994;28;20760;-67
2023/07/05 09:28:20;;;;;;;10.30;7.50;;;23.40;99.90;;;;;;5092802;28;20449;-67
2023/07/05 09:30:46;;;;;;;12.97;7.80;;;23.30;99.90;;;;;;5089521;28;20409;-69
2023/07/05 09:33:20;;;;;;;9.03;8.13;;;23.30;99.90;;;;;;5085592;28;20451;-69
2023/07/05 09:35:47;;;;;;;14.47;7.60;;;23.50;99.90;;;;;;5085889;28;20409;-67
2023/07/05 09:38:18;;;;;;;9.07;7.97;;;23.40;99.90;;;;;;5087920;28;20424;-69
2023/07/05 09:40:52;;;;;;;11.30;7.67;;;23.20;99.90;;;;;;5091936;28;20457;-67
2023/07/05 09:43:33;;;;;;;13.00;8.07;;;23.30;99.90;;;;;;5083681;28;20408;-67
2023/07/05 09:46:05;;;;;;;11.57;8.03;;;23.30;99.90;;;;;;5089268;28;20411;-67
2023/07/05 09:48:41;;;;;;;11.10;6.90;;;23.70;99.90;;;;;;5089319;28;20522;-67
2023/07/05 09:51:06;;;;;;;8.87;8.07;;;23.70;99.90;;;;;;5091175;28;20893;-68
2023/07/05 09:53:44;;;;;;;8.53;7.33;;;23.60;99.90;;;;;;5087966;28;20423;-67
2023/07/05 09:56:15;;;;;;;9.43;7.50;;;23.40;99.90;;;;;;5093228;28;20177;-69
2023/07/05 09:58:47;;;;;;;8.27;7.30;;;23.50;99.90;;;;;;5093529;28;20804;-69
2023/07/05 10:01:21;;;;;;;9.30;7.20;;;23.60;99.90;;;;;;5077166;28;20423;-68
2023/07/05 10:04:00;;;;;;;7.90;6.93;;;23.50;99.90;;;;;;5087519;28;20413;-67
2023/07/05 10:06:28;;;;;;;9.13;7.53;;;23.40;99.90;;;;;;5074314;28;20407;-68
2023/07/05 10:08:55;;;;;;;8.00;6.90;;;23.50;99.90;;;;;;5084373;28;20557;-69
2023/07/05 10:11:33;;;;;;;7.77;6.97;;;23.70;99.90;;;;;;5085368;28;20904;-68
2023/07/05 10:14:10;;;;;;;8.50;7.60;;;24.00;99.90;;;;;;5082862;28;20417;-69
2023/07/05 10:16:49;;;;;;;10.63;7.40;;;24.00;99.90;;;;;;5084975;28;20587;-68
2023/07/05 10:19:44;;;;;;;7.60;6.17;;;23.90;99.90;;;;;;5079339;28;20433;-68
2023/07/05 10:22:16;;;;;;;8.97;6.10;;;24.00;99.90;;;;;;5084421;28;20930;-67
2023/07/05 10:24:51;;;;;;;6.40;5.80;;;23.80;99.90;;;;;;5089332;28;20756;-67
2023/07/05 10:27:33;;;;;;;6.67;5.93;;;24.00;99.90;;;;;;5077259;28;20416;-68
2023/07/05 10:30:13;;;;;;;8.30;5.80;;;24.10;99.90;;;;;;5088147;28;20465;-69
2023/07/05 10:32:44;;;;;;;9.13;5.40;;;24.10;99.90;;;;;;5090949;28;20812;-68
2023/07/05 10:35:24;;;;;;;5.50;4.90;;;24.40;99.90;;;;;;5083758;28;20402;-69
2023/07/05 10:37:50;;;;;;;8.27;5.20;;;25.20;99.90;;;;;;5089511;28;20418;-69
2023/07/05 10:40:16;;;;;;;6.87;5.57;;;25.40;99.90;;;;;;5077150;28;20772;-68
2023/07/05 10:42:49;;;;;;;5.03;4.53;;;25.50;99.90;;;;;;5088507;28;20414;-68
2023/07/05 10:45:17;;;;;;;5.40;4.80;;;25.20;99.90;;;;;;5090726;28;20448;-68
2023/07/05 10:47:47;;;;;;;7.00;4.60;;;25.40;99.90;;;;;;5084063;28;20472;-68
2023/07/05 10:50:15;;;;;;;4.83;4.23;;;25.60;99.90;;;;;;5081706;28;20455;-68
2023/07/05 10:52:51;;;;;;;6.27;4.37;;;25.50;99.90;;;;;;5087287;28;20426;-67
2023/07/05 10:55:24;;;;;;;6.47;5.00;;;25.40;99.90;;;;;;5078246;28;20416;-67
2023/07/05 10:58:04;;;;;;;8.20;4.83;;;25.10;99.90;;;;;;5086746;28;20432;-69
2023/07/05 11:00:45;;;;;;;5.87;5.27;;;25.40;99.90;;;;;;5085039;28;20429;-67
2023/07/05 11:03:42;;;;;;;6.63;4.73;;;25.50;99.90;;;;;;5087888;28;20928;-68
2023/07/05 11:06:09;;;;;;;7.20;4.67;;;25.20;99.90;;;;;;5067380;28;20432;-69
2023/07/05 11:08:39;;;;;;;9.40;4.37;;;25.00;99.90;;;;;;5086226;28;20471;-67
2023/07/05 11:11:16;;;;;;;5.33;4.53;;;24.80;99.90;;;;;;5083718;28;20807;-66
2023/07/05 11:13:47;;;;;;;6.93;4.40;;;24.50;99.90;;;;;;5090408;28;20399;-67
2023/07/05 11:16:25;;;;;;;5.73;4.27;;;24.40;99.90;;;;;;5075503;28;20810;-66
2023/07/05 11:18:58;;;;;;;4.80;4.30;;;24.20;99.90;;;;;;5075884;28;20452;-67
2023/07/05 11:21:35;;;;;;;4.03;3.63;;;23.90;99.90;;;;;;5079137;28;20853;-67
2023/07/05 11:24:00;;;;;;;7.00;3.57;;;23.70;99.90;;;;;;5088228;28;20445;-66
2023/07/05 11:26:41;;;;;;;3.87;3.57;;;23.80;99.90;;;;;;5080623;28;20454;-67
2023/07/05 11:29:28;;;;;;;4.53;3.27;;;24.20;99.90;;;;;;5089223;28;20210;-67
2023/07/05 11:31:53;;;;;;;4.77;3.80;;;24.60;99.90;;;;;;5078040;28;21044;-68
2023/07/05 11:34:22;;;;;;;3.47;2.73;;;24.80;99.90;;;;;;5087096;28;20423;-66
2023/07/05 11:36:49;;;;;;;3.40;2.87;;;25.00;99.90;;;;;;5088302;28;20174;-68
2023/07/05 11:39:33;;;;;;;4.60;3.23;;;24.80;99.90;;;;;;5083438;28;20470;-67
2023/07/05 11:42:22;;;;;;;2.80;2.60;;;24.90;99.90;;;;;;5083863;28;21018;-67
2023/07/05 11:45:17;;;;;;;4.23;3.40;;;24.50;99.90;;;;;;5088942;28;20422;-67
2023/07/05 11:47:48;;;;;;;2.53;2.33;;;24.60;99.90;;;;;;5080753;28;20471;-67
2023/07/05 11:50:14;;;;;;;2.90;2.30;;;24.60;99.90;;;;;;5087380;28;20455;-67
2023/07/05 11:52:55;;;;;;;2.60;2.40;;;24.80;99.90;;;;;;5077980;28;20451;-66
2023/07/05 11:55:34;;;;;;;3.00;2.63;;;24.90;99.90;;;;;;5087526;28;20500;-67
2023/07/05 11:58:09;;;;;;;3.73;2.30;;;24.80;99.90;;;;;;5087388;28;20521;-66
2023/07/05 12:00:46;;;;;;;3.07;2.43;;;24.90;99.90;;;;;;5084787;28;20422;-67
2023/07/05 12:03:23;;;;;;;3.80;2.60;;;25.20;99.90;;;;;;5086769;28;20440;-66
2023/07/05 12:06:20;;;;;;;3.30;2.23;;;25.10;99.90;;;;;;5082593;28;20770;-66
2023/07/05 12:09:00;;;;;;;3.33;2.50;;;25.20;99.90;;;;;;5077708;28;20619;-66
2023/07/05 12:11:37;;;;;;;3.27;2.97;;;25.00;99.90;;;;;;5072673;28;20500;-66
2023/07/05 12:14:11;;;;;;;2.70;2.40;;;25.10;99.90;;;;;;5090631;28;20406;-67
2023/07/05 12:16:37;;;;;;;4.40;2.27;;;25.00;99.90;;;;;;5087540;28;20772;-66
2023/07/05 12:19:07;;;;;;;2.93;2.17;;;25.20;99.90;;;;;;5080451;28;20439;-67
2023/07/05 12:21:33;;;;;;;4.03;2.23;;;25.20;99.90;;;;;;5090655;28;20490;-65
2023/07/05 12:24:02;;;;;;;3.10;2.20;;;25.40;99.90;;;;;;5089357;28;20806;-67
2023/07/05 12:26:31;;;;;;;3.70;2.37;;;25.30;99.90;;;;;;5076920;28;20419;-67
2023/07/05 12:28:59;;;;;;;3.30;2.10;;;25.30;99.90;;;;;;5089619;28;20504;-66
2023/07/05 12:31:25;;;;;;;3.13;2.13;;;25.20;99.90;;;;;;5079225;28;20904;-66
2023/07/05 12:33:56;;;;;;;3.93;2.53;;;25.40;99.90;;;;;;5086830;28;20415;-67
2023/07/05 12:36:22;;;;;;;2.50;2.00;;;25.50;99.90;;;;;;5083743;28;20177;-66
2023/07/05 12:38:51;;;;;;;3.83;2.33;;;25.50;99.90;;;;;;5084541;28;20441;-67
2023/07/05 12:41:25;;;;;;;2.10;1.90;;;25.70;99.90;;;;;;5083416;28;20418;-66
2023/07/05 12:44:14;;;;;;;2.30;2.10;;;25.70;99.90;;;;;;5083751;28;20418;-66
2023/07/05 12:46:41;;;;;;;3.90;2.10;;;25.50;99.90;;;;;;5086076;28;20456;-66
2023/07/05 12:49:12;;;;;;;2.63;1.90;;;25.50;99.90;;;;;;5092102;28;20464;-68
2023/07/05 12:51:49;;;;;;;2.97;1.83;;;25.40;99.90;;;;;;5087397;28;20420;-68
2023/07/05 12:54:15;;;;;;;1.90;1.53;;;25.30;99.90;;;;;;5072771;28;20503;-67
2023/07/05 12:56:45;;;;;;;4.87;2.40;;;25.30;99.90;;;;;;5085577;28;20418;-67
2023/07/05 12:59:25;;;;;;;3.70;1.83;;;25.30;99.90;;;;;;5090378;28;20432;-68